sensor_id;sensor_type;location;lat;lon;timestamp;temperature;humidity
35246;DHT22;21379;50.962;6.960;2023-06-19T00:00:44;22.30;99.90
35246;DHT22;21379;50.962;6.960;2023-06-19T00:03:11;22.30;99.90
35246;DHT22;21379;50.962;6.960;2023-06-19T00:05:38;22.20;99.90
35246;DHT22;21379;50.962;6.960;2023-06-19T00:08:05;22.20;99.90
35246;DHT22;21379;50.962;6.960;2023-06-19T00:10:33;22.10;99.90
35246;DHT22;21379;50.962;6.960;2023-06-19T00:13:00;22.10;99.90
35246;DHT22;21379;50.962;6.960;2023-06-19T00:15:27;22.10;99.90
35246;DHT22;21379;50.962;6.960;2023-06-19T00:17:55;22.00;99.90
35246;DHT22;21379;50.962;6.960;2023-06-19T00:20:24;22.00;99.90
35246;DHT22;21379;50.962;6.960;2023-06-19T00:22:51;21.90;99.90
35246;DHT22;21379;50.962;6.960;2023-06-19T00:25:18;21.90;99.90
35246;DHT22;21379;50.962;6.960;2023-06-19T00:27:47;21.90;99.90
35246;DHT22;21379;50.962;6.960;2023-06-19T00:30:14;21.90;99.90
35246;DHT22;21379;50.962;6.960;2023-06-19T00:32:41;21.90;99.90
35246;DHT22;21379;50.962;6.960;2023-06-19T00:35:13;21.80;99.90
35246;DHT22;21379;50.962;6.960;2023-06-19T00:37:41;21.80;99.90
35246;DHT22;21379;50.962;6.960;2023-06-19T00:40:17;21.80;99.90
35246;DHT22;21379;50.962;6.960;2023-06-19T00:42:47;21.80;99.90
35246;DHT22;21379;50.962;6.960;2023-06-19T00:45:14;21.80;99.90
35246;DHT22;21379;50.962;6.960;2023-06-19T00:47:41;21.80;99.90
35246;DHT22;21379;50.962;6.960;2023-06-19T00:50:09;21.80;99.90
35246;DHT22;21379;50.962;6.960;2023-06-19T00:52:36;21.70;99.90
35246;DHT22;21379;50.962;6.960;2023-06-19T00:55:04;21.80;99.90
35246;DHT22;21379;50.962;6.960;2023-06-19T00:57:32;21.80;99.90
35246;DHT22;21379;50.962;6.960;2023-06-19T01:00:00;21.80;99.90
35246;DHT22;21379;50.962;6.960;2023-06-19T01:02:30;21.80;99.90
35246;DHT22;21379;50.962;6.960;2023-06-19T01:04:57;21.80;99.90
35246;DHT22;21379;50.962;6.960;2023-06-19T01:07:29;21.80;99.90
35246;DHT22;21379;50.962;6.960;2023-06-19T01:10:02;21.90;99.90
35246;DHT22;21379;50.962;6.960;2023-06-19T01:12:34;21.90;99.90
35246;DHT22;21379;50.962;6.960;2023-06-19T01:15:05;21.90;99.90
35246;DHT22;21379;50.962;6.960;2023-06-19T01:17:35;21.90;99.90
35246;DHT22;21379;50.962;6.960;2023-06-19T01:20:03;21.90;99.90
35246;DHT22;21379;50.962;6.960;2023-06-19T01:22:39;21.90;99.90
35246;DHT22;21379;50.962;6.960;2023-06-19T01:25:09;21.80;99.90
35246;DHT22;21379;50.962;6.960;2023-06-19T01:27:36;21.80;99.90
35246;DHT22;21379;50.962;6.960;2023-06-19T01:30:06;21.80;99.90
35246;DHT22;21379;50.962;6.960;2023-06-19T01:32:40;21.80;99.90
35246;DHT22;21379;50.962;6.960;2023-06-19T01:35:09;21.80;99.90
35246;DHT22;21379;50.962;6.960;2023-06-19T01:37:40;21.80;99.90
35246;DHT22;21379;50.962;6.960;2023-06-19T01:40:10;21.70;99.90
35246;DHT22;21379;50.962;6.960;2023-06-19T01:42:38;21.70;99.90
35246;DHT22;21379;50.962;6.960;2023-06-19T01:45:07;21.70;99.90
35246;DHT22;21379;50.962;6.960;2023-06-19T01:47:35;21.70;99.90
35246;DHT22;21379;50.962;6.960;2023-06-19T01:50:03;21.70;99.90
35246;DHT22;21379;50.962;6.960;2023-06-19T01:52:30;21.70;99.90
35246;DHT22;21379;50.962;6.960;2023-06-19T01:54:58;21.70;99.90
35246;DHT22;21379;50.962;6.960;2023-06-19T01:57:25;21.70;99.90
35246;DHT22;21379;50.962;6.960;2023-06-19T01:59:52;21.60;99.90
35246;DHT22;21379;50.962;6.960;2023-06-19T02:02:21;21.60;99.90
35246;DHT22;21379;50.962;6.960;2023-06-19T02:04:49;21.60;99.90
35246;DHT22;21379;50.962;6.960;2023-06-19T02:07:16;21.50;99.90
35246;DHT22;21379;50.962;6.960;2023-06-19T02:09:43;21.50;99.90
35246;DHT22;21379;50.962;6.960;2023-06-19T02:12:11;21.50;99.90
35246;DHT22;21379;50.962;6.960;2023-06-19T02:14:38;21.50;99.90
35246;DHT22;21379;50.962;6.960;2023-06-19T02:17:05;21.50;99.90
35246;DHT22;21379;50.962;6.960;2023-06-19T02:19:34;21.50;99.90
35246;DHT22;21379;50.962;6.960;2023-06-19T02:22:01;21.50;99.90
35246;DHT22;21379;50.962;6.960;2023-06-19T02:24:28;21.50;99.90
35246;DHT22;21379;50.962;6.960;2023-06-19T02:26:56;21.50;99.90
35246;DHT22;21379;50.962;6.960;2023-06-19T02:29:25;21.50;99.90
35246;DHT22;21379;50.962;6.960;2023-06-19T02:31:52;21.60;99.90
35246;DHT22;21379;50.962;6.960;2023-06-19T02:34:19;21.50;99.90
35246;DHT22;21379;50.962;6.960;2023-06-19T02:36:46;21.50;99.90
35246;DHT22;21379;50.962;6.960;2023-06-19T02:39:13;21.50;99.90
35246;DHT22;21379;50.962;6.960;2023-06-19T02:41:40;21.50;99.90
35246;DHT22;21379;50.962;6.960;2023-06-19T02:44:11;21.50;99.90
35246;DHT22;21379;50.962;6.960;2023-06-19T02:46:39;21.50;99.90
35246;DHT22;21379;50.962;6.960;2023-06-19T02:49:08;21.50;99.90
35246;DHT22;21379;50.962;6.960;2023-06-19T02:51:36;21.50;99.90
35246;DHT22;21379;50.962;6.960;2023-06-19T02:54:03;21.50;99.90
35246;DHT22;21379;50.962;6.960;2023-06-19T02:56:32;21.50;99.90
35246;DHT22;21379;50.962;6.960;2023-06-19T02:58:58;21.50;99.90
35246;DHT22;21379;50.962;6.960;2023-06-19T03:01:25;21.50;99.90
35246;DHT22;21379;50.962;6.960;2023-06-19T03:03:54;21.50;99.90
35246;DHT22;21379;50.962;6.960;2023-06-19T03:06:21;21.50;99.90
35246;DHT22;21379;50.962;6.960;2023-06-19T03:08:48;21.50;99.90
35246;DHT22;21379;50.962;6.960;2023-06-19T03:11:14;21.50;99.90
35246;DHT22;21379;50.962;6.960;2023-06-19T03:13:46;21.40;99.90
35246;DHT22;21379;50.962;6.960;2023-06-19T03:16:13;21.40;99.90
35246;DHT22;21379;50.962;6.960;2023-06-19T03:18:41;21.40;99.90
35246;DHT22;21379;50.962;6.960;2023-06-19T03:21:11;21.30;99.90
35246;DHT22;21379;50.962;6.960;2023-06-19T03:23:38;21.20;99.90
35246;DHT22;21379;50.962;6.960;2023-06-19T03:26:07;21.10;99.90
35246;DHT22;21379;50.962;6.960;2023-06-19T03:28:35;21.10;99.90
35246;DHT22;21379;50.962;6.960;2023-06-19T03:31:02;21.00;99.90
35246;DHT22;21379;50.962;6.960;2023-06-19T03:33:29;21.00;99.90
35246;DHT22;21379;50.962;6.960;2023-06-19T03:35:57;20.90;99.90
35246;DHT22;21379;50.962;6.960;2023-06-19T03:38:36;20.90;99.90
35246;DHT22;21379;50.962;6.960;2023-06-19T03:41:03;20.80;99.90
35246;DHT22;21379;50.962;6.960;2023-06-19T03:43:30;20.80;99.90
35246;DHT22;21379;50.962;6.960;2023-06-19T03:45:57;20.80;99.90
35246;DHT22;21379;50.962;6.960;2023-06-19T03:48:24;20.70;99.90
35246;DHT22;21379;50.962;6.960;2023-06-19T03:50:51;20.80;99.90
35246;DHT22;21379;50.962;6.960;2023-06-19T03:53:18;20.70;99.90
35246;DHT22;21379;50.962;6.960;2023-06-19T03:55:46;20.70;99.90
35246;DHT22;21379;50.962;6.960;2023-06-19T03:58:13;20.90;99.90
35246;DHT22;21379;50.962;6.960;2023-06-19T04:00:41;20.90;99.90
35246;DHT22;21379;50.962;6.960;2023-06-19T04:03:08;20.90;99.90
35246;DHT22;21379;50.962;6.960;2023-06-19T04:05:35;21.00;99.90
35246;DHT22;21379;50.962;6.960;2023-06-19T04:08:02;21.10;99.90
35246;DHT22;21379;50.962;6.960;2023-06-19T04:10:29;21.20;99.90
35246;DHT22;21379;50.962;6.960;2023-06-19T04:12:58;21.10;99.90
35246;DHT22;21379;50.962;6.960;2023-06-19T04:15:25;21.10;99.90
35246;DHT22;21379;50.962;6.960;2023-06-19T04:17:52;21.00;99.90
35246;DHT22;21379;50.962;6.960;2023-06-19T04:20:19;21.00;99.90
35246;DHT22;21379;50.962;6.960;2023-06-19T04:22:47;21.00;99.90
35246;DHT22;21379;50.962;6.960;2023-06-19T04:25:14;20.90;99.90
35246;DHT22;21379;50.962;6.960;2023-06-19T04:27:41;20.90;99.90
35246;DHT22;21379;50.962;6.960;2023-06-19T04:30:12;20.90;99.90
35246;DHT22;21379;50.962;6.960;2023-06-19T04:32:39;20.90;99.90
35246;DHT22;21379;50.962;6.960;2023-06-19T04:35:07;20.90;99.90
35246;DHT22;21379;50.962;6.960;2023-06-19T04:37:34;20.90;99.90
35246;DHT22;21379;50.962;6.960;2023-06-19T04:40:01;21.00;99.90
35246;DHT22;21379;50.962;6.960;2023-06-19T04:42:29;21.00;99.90
35246;DHT22;21379;50.962;6.960;2023-06-19T04:44:56;21.00;99.90
35246;DHT22;21379;50.962;6.960;2023-06-19T04:47:26;21.00;99.90
35246;DHT22;21379;50.962;6.960;2023-06-19T04:49:52;20.90;99.90
35246;DHT22;21379;50.962;6.960;2023-06-19T04:52:19;20.80;99.90
35246;DHT22;21379;50.962;6.960;2023-06-19T04:54:46;20.80;99.90
35246;DHT22;21379;50.962;6.960;2023-06-19T04:57:14;20.80;99.90
35246;DHT22;21379;50.962;6.960;2023-06-19T04:59:42;20.80;99.90
35246;DHT22;21379;50.962;6.960;2023-06-19T05:02:09;20.80;99.90
35246;DHT22;21379;50.962;6.960;2023-06-19T05:04:38;20.90;99.90
35246;DHT22;21379;50.962;6.960;2023-06-19T05:07:08;20.90;99.90
35246;DHT22;21379;50.962;6.960;2023-06-19T05:09:36;20.90;99.90
35246;DHT22;21379;50.962;6.960;2023-06-19T05:12:03;20.90;99.90
35246;DHT22;21379;50.962;6.960;2023-06-19T05:14:30;21.00;99.90
35246;DHT22;21379;50.962;6.960;2023-06-19T05:16:57;20.90;99.90
35246;DHT22;21379;50.962;6.960;2023-06-19T05:19:27;21.00;99.90
35246;DHT22;21379;50.962;6.960;2023-06-19T05:21:55;21.00;99.90
35246;DHT22;21379;50.962;6.960;2023-06-19T05:24:22;21.00;99.90
35246;DHT22;21379;50.962;6.960;2023-06-19T05:26:49;21.00;99.90
35246;DHT22;21379;50.962;6.960;2023-06-19T05:29:16;21.10;99.90
35246;DHT22;21379;50.962;6.960;2023-06-19T05:31:42;21.10;99.90
35246;DHT22;21379;50.962;6.960;2023-06-19T05:34:09;21.00;99.90
35246;DHT22;21379;50.962;6.960;2023-06-19T05:36:36;20.90;99.90
35246;DHT22;21379;50.962;6.960;2023-06-19T05:39:04;20.90;99.90
35246;DHT22;21379;50.962;6.960;2023-06-19T05:41:31;21.10;99.90
35246;DHT22;21379;50.962;6.960;2023-06-19T05:43:58;21.10;99.90
35246;DHT22;21379;50.962;6.960;2023-06-19T05:46:25;21.20;99.90
35246;DHT22;21379;50.962;6.960;2023-06-19T05:48:52;21.30;99.90
35246;DHT22;21379;50.962;6.960;2023-06-19T05:51:20;21.40;99.90
35246;DHT22;21379;50.962;6.960;2023-06-19T05:53:47;21.40;99.90
35246;DHT22;21379;50.962;6.960;2023-06-19T05:56:16;21.50;99.90
35246;DHT22;21379;50.962;6.960;2023-06-19T05:58:43;21.40;99.90
35246;DHT22;21379;50.962;6.960;2023-06-19T06:01:10;21.50;99.90
35246;DHT22;21379;50.962;6.960;2023-06-19T06:03:37;21.60;99.90
35246;DHT22;21379;50.962;6.960;2023-06-19T06:06:05;21.80;99.90
35246;DHT22;21379;50.962;6.960;2023-06-19T06:08:32;21.80;99.90
35246;DHT22;21379;50.962;6.960;2023-06-19T06:10:59;21.90;99.90
35246;DHT22;21379;50.962;6.960;2023-06-19T06:13:27;21.90;99.90
35246;DHT22;21379;50.962;6.960;2023-06-19T06:15:54;22.00;99.90
35246;DHT22;21379;50.962;6.960;2023-06-19T06:18:20;22.10;99.90
35246;DHT22;21379;50.962;6.960;2023-06-19T06:20:47;22.10;99.90
35246;DHT22;21379;50.962;6.960;2023-06-19T06:23:14;22.10;99.90
35246;DHT22;21379;50.962;6.960;2023-06-19T06:25:41;22.20;99.90
35246;DHT22;21379;50.962;6.960;2023-06-19T06:28:08;22.30;99.90
35246;DHT22;21379;50.962;6.960;2023-06-19T06:30:36;22.50;99.90
35246;DHT22;21379;50.962;6.960;2023-06-19T06:33:04;22.60;99.90
35246;DHT22;21379;50.962;6.960;2023-06-19T06:35:31;22.60;99.90
35246;DHT22;21379;50.962;6.960;2023-06-19T06:37:58;22.60;99.90
35246;DHT22;21379;50.962;6.960;2023-06-19T06:40:25;22.60;99.90
35246;DHT22;21379;50.962;6.960;2023-06-19T06:42:53;22.60;99.90
35246;DHT22;21379;50.962;6.960;2023-06-19T06:45:20;22.60;99.90
35246;DHT22;21379;50.962;6.960;2023-06-19T06:47:48;22.50;99.90
35246;DHT22;21379;50.962;6.960;2023-06-19T06:50:15;22.50;99.90
35246;DHT22;21379;50.962;6.960;2023-06-19T06:52:42;22.50;99.90
35246;DHT22;21379;50.962;6.960;2023-06-19T06:55:09;22.50;99.90
35246;DHT22;21379;50.962;6.960;2023-06-19T06:57:36;22.70;99.90
35246;DHT22;21379;50.962;6.960;2023-06-19T07:00:05;23.00;99.90
35246;DHT22;21379;50.962;6.960;2023-06-19T07:02:35;23.10;99.90
35246;DHT22;21379;50.962;6.960;2023-06-19T07:05:07;23.00;99.90
35246;DHT22;21379;50.962;6.960;2023-06-19T07:07:34;23.20;99.90
35246;DHT22;21379;50.962;6.960;2023-06-19T07:10:01;23.20;99.90
35246;DHT22;21379;50.962;6.960;2023-06-19T07:12:28;23.30;99.90
35246;DHT22;21379;50.962;6.960;2023-06-19T07:14:55;23.40;99.90
35246;DHT22;21379;50.962;6.960;2023-06-19T07:17:22;23.50;99.50
35246;DHT22;21379;50.962;6.960;2023-06-19T07:19:49;23.40;98.60
35246;DHT22;21379;50.962;6.960;2023-06-19T07:22:17;23.50;98.90
35246;DHT22;21379;50.962;6.960;2023-06-19T07:24:44;23.50;98.40
35246;DHT22;21379;50.962;6.960;2023-06-19T07:27:11;23.50;98.30
35246;DHT22;21379;50.962;6.960;2023-06-19T07:29:38;23.70;97.60
35246;DHT22;21379;50.962;6.960;2023-06-19T07:32:06;23.80;97.60
35246;DHT22;21379;50.962;6.960;2023-06-19T07:34:33;23.90;96.60
35246;DHT22;21379;50.962;6.960;2023-06-19T07:37:00;23.70;96.30
35246;DHT22;21379;50.962;6.960;2023-06-19T07:39:28;23.80;97.00
35246;DHT22;21379;50.962;6.960;2023-06-19T07:41:55;23.70;96.90
35246;DHT22;21379;50.962;6.960;2023-06-19T07:44:22;23.70;96.80
35246;DHT22;21379;50.962;6.960;2023-06-19T07:46:48;23.50;96.70
35246;DHT22;21379;50.962;6.960;2023-06-19T07:49:15;23.60;97.20
35246;DHT22;21379;50.962;6.960;2023-06-19T07:51:42;23.30;96.80
35246;DHT22;21379;50.962;6.960;2023-06-19T07:54:09;23.20;97.00
35246;DHT22;21379;50.962;6.960;2023-06-19T07:56:37;23.30;98.00
35246;DHT22;21379;50.962;6.960;2023-06-19T07:59:04;23.50;98.00
35246;DHT22;21379;50.962;6.960;2023-06-19T08:01:31;23.30;97.70
35246;DHT22;21379;50.962;6.960;2023-06-19T08:03:58;23.30;98.30
35246;DHT22;21379;50.962;6.960;2023-06-19T08:06:25;23.30;98.40
35246;DHT22;21379;50.962;6.960;2023-06-19T08:08:52;23.40;98.50
35246;DHT22;21379;50.962;6.960;2023-06-19T08:11:19;23.40;98.40
35246;DHT22;21379;50.962;6.960;2023-06-19T08:13:47;23.40;98.60
35246;DHT22;21379;50.962;6.960;2023-06-19T08:16:14;23.60;98.80
35246;DHT22;21379;50.962;6.960;2023-06-19T08:18:41;23.60;98.80
35246;DHT22;21379;50.962;6.960;2023-06-19T08:21:08;23.70;98.70
35246;DHT22;21379;50.962;6.960;2023-06-19T08:23:35;23.90;98.90
35246;DHT22;21379;50.962;6.960;2023-06-19T08:26:03;23.90;97.90
35246;DHT22;21379;50.962;6.960;2023-06-19T08:28:31;24.20;97.50
35246;DHT22;21379;50.962;6.960;2023-06-19T08:31:00;24.30;97.40
35246;DHT22;21379;50.962;6.960;2023-06-19T08:33:27;24.50;97.90
35246;DHT22;21379;50.962;6.960;2023-06-19T08:35:54;24.70;97.40
35246;DHT22;21379;50.962;6.960;2023-06-19T08:38:20;24.90;97.20
35246;DHT22;21379;50.962;6.960;2023-06-19T08:40:48;24.80;96.20
35246;DHT22;21379;50.962;6.960;2023-06-19T08:43:15;24.70;96.00
35246;DHT22;21379;50.962;6.960;2023-06-19T08:45:42;24.60;96.40
35246;DHT22;21379;50.962;6.960;2023-06-19T08:48:13;24.80;96.60
35246;DHT22;21379;50.962;6.960;2023-06-19T08:50:40;25.00;96.00
35246;DHT22;21379;50.962;6.960;2023-06-19T08:53:07;24.80;94.00
35246;DHT22;21379;50.962;6.960;2023-06-19T08:55:34;24.50;94.50
35246;DHT22;21379;50.962;6.960;2023-06-19T08:58:01;24.40;94.20
35246;DHT22;21379;50.962;6.960;2023-06-19T09:00:29;24.70;94.20
35246;DHT22;21379;50.962;6.960;2023-06-19T09:03:02;24.80;93.80
35246;DHT22;21379;50.962;6.960;2023-06-19T09:05:30;24.30;94.00
35246;DHT22;21379;50.962;6.960;2023-06-19T09:07:58;24.60;93.80
35246;DHT22;21379;50.962;6.960;2023-06-19T09:10:29;24.30;94.20
35246;DHT22;21379;50.962;6.960;2023-06-19T09:12:58;25.00;94.60
35246;DHT22;21379;50.962;6.960;2023-06-19T09:15:27;25.20;93.10
35246;DHT22;21379;50.962;6.960;2023-06-19T09:18:02;24.90;93.00
35246;DHT22;21379;50.962;6.960;2023-06-19T09:20:31;24.60;93.70
35246;DHT22;21379;50.962;6.960;2023-06-19T09:22:58;24.50;93.20
35246;DHT22;21379;50.962;6.960;2023-06-19T09:25:25;24.50;93.10
35246;DHT22;21379;50.962;6.960;2023-06-19T09:27:53;25.00;93.40
35246;DHT22;21379;50.962;6.960;2023-06-19T09:30:20;25.00;93.10
35246;DHT22;21379;50.962;6.960;2023-06-19T09:32:48;25.40;93.60
35246;DHT22;21379;50.962;6.960;2023-06-19T09:35:15;25.00;92.70
35246;DHT22;21379;50.962;6.960;2023-06-19T09:37:45;24.90;93.20
35246;DHT22;21379;50.962;6.960;2023-06-19T09:40:13;25.20;93.50
35246;DHT22;21379;50.962;6.960;2023-06-19T09:42:41;25.70;93.60
35246;DHT22;21379;50.962;6.960;2023-06-19T09:45:18;26.00;91.90
35246;DHT22;21379;50.962;6.960;2023-06-19T09:47:46;26.00;90.70
35246;DHT22;21379;50.962;6.960;2023-06-19T09:50:14;26.50;90.80
35246;DHT22;21379;50.962;6.960;2023-06-19T09:52:47;26.50;90.80
35246;DHT22;21379;50.962;6.960;2023-06-19T09:55:17;26.90;91.20
35246;DHT22;21379;50.962;6.960;2023-06-19T09:57:45;26.80;90.40
35246;DHT22;21379;50.962;6.960;2023-06-19T10:00:15;26.30;90.30
35246;DHT22;21379;50.962;6.960;2023-06-19T10:02:48;26.60;90.10
35246;DHT22;21379;50.962;6.960;2023-06-19T10:05:15;25.80;90.70
35246;DHT22;21379;50.962;6.960;2023-06-19T10:07:45;25.90;91.00
35246;DHT22;21379;50.962;6.960;2023-06-19T10:10:24;26.70;90.00
35246;DHT22;21379;50.962;6.960;2023-06-19T10:12:53;27.00;88.60
35246;DHT22;21379;50.962;6.960;2023-06-19T10:15:22;27.20;88.10
35246;DHT22;21379;50.962;6.960;2023-06-19T10:17:52;27.10;88.20
35246;DHT22;21379;50.962;6.960;2023-06-19T10:20:24;27.30;88.50
35246;DHT22;21379;50.962;6.960;2023-06-19T10:22:58;27.60;87.70
35246;DHT22;21379;50.962;6.960;2023-06-19T10:25:29;27.80;85.80
35246;DHT22;21379;50.962;6.960;2023-06-19T10:27:57;27.70;85.30
35246;DHT22;21379;50.962;6.960;2023-06-19T10:30:24;28.20;86.50
35246;DHT22;21379;50.962;6.960;2023-06-19T10:32:52;28.20;85.70
35246;DHT22;21379;50.962;6.960;2023-06-19T10:35:20;28.70;84.10
35246;DHT22;21379;50.962;6.960;2023-06-19T10:37:49;28.60;82.10
35246;DHT22;21379;50.962;6.960;2023-06-19T10:40:17;28.30;83.00
35246;DHT22;21379;50.962;6.960;2023-06-19T10:42:45;28.20;82.00
35246;DHT22;21379;50.962;6.960;2023-06-19T10:45:14;28.20;83.20
35246;DHT22;21379;50.962;6.960;2023-06-19T10:47:42;28.70;81.40
35246;DHT22;21379;50.962;6.960;2023-06-19T10:50:11;28.30;80.60
35246;DHT22;21379;50.962;6.960;2023-06-19T10:52:42;28.70;82.80
35246;DHT22;21379;50.962;6.960;2023-06-19T10:55:11;29.30;81.60
35246;DHT22;21379;50.962;6.960;2023-06-19T10:57:39;29.00;80.70
35246;DHT22;21379;50.962;6.960;2023-06-19T11:00:09;28.50;80.30
35246;DHT22;21379;50.962;6.960;2023-06-19T11:02:41;29.30;81.10
35246;DHT22;21379;50.962;6.960;2023-06-19T11:05:09;28.40;81.10
35246;DHT22;21379;50.962;6.960;2023-06-19T11:07:37;28.50;82.40
35246;DHT22;21379;50.962;6.960;2023-06-19T11:10:05;28.40;81.90
35246;DHT22;21379;50.962;6.960;2023-06-19T11:12:32;28.30;81.80
35246;DHT22;21379;50.962;6.960;2023-06-19T11:15:03;28.20;82.00
35246;DHT22;21379;50.962;6.960;2023-06-19T11:17:32;28.00;81.10
35246;DHT22;21379;50.962;6.960;2023-06-19T11:19:59;28.50;82.70
35246;DHT22;21379;50.962;6.960;2023-06-19T11:22:41;29.30;82.30
35246;DHT22;21379;50.962;6.960;2023-06-19T11:25:09;29.20;78.50
35246;DHT22;21379;50.962;6.960;2023-06-19T11:27:39;28.10;80.90
35246;DHT22;21379;50.962;6.960;2023-06-19T11:30:07;28.30;82.10
35246;DHT22;21379;50.962;6.960;2023-06-19T11:32:37;29.50;82.10
35246;DHT22;21379;50.962;6.960;2023-06-19T11:35:09;29.50;79.80
35246;DHT22;21379;50.962;6.960;2023-06-19T11:37:39;29.20;79.00
35246;DHT22;21379;50.962;6.960;2023-06-19T11:40:08;28.90;80.70
35246;DHT22;21379;50.962;6.960;2023-06-19T11:42:47;28.90;80.40
35246;DHT22;21379;50.962;6.960;2023-06-19T11:45:14;28.90;80.70
35246;DHT22;21379;50.962;6.960;2023-06-19T11:47:44;29.00;78.90
35246;DHT22;21379;50.962;6.960;2023-06-19T11:50:12;28.80;80.30
35246;DHT22;21379;50.962;6.960;2023-06-19T11:52:43;29.50;77.00
35246;DHT22;21379;50.962;6.960;2023-06-19T11:55:13;29.30;78.20
35246;DHT22;21379;50.962;6.960;2023-06-19T11:57:40;29.50;78.00
35246;DHT22;21379;50.962;6.960;2023-06-19T12:00:14;28.30;77.70
35246;DHT22;21379;50.962;6.960;2023-06-19T12:02:41;29.20;78.30
35246;DHT22;21379;50.962;6.960;2023-06-19T12:05:09;29.40;78.10
35246;DHT22;21379;50.962;6.960;2023-06-19T12:07:37;29.20;76.50
35246;DHT22;21379;50.962;6.960;2023-06-19T12:10:04;29.10;77.60
35246;DHT22;21379;50.962;6.960;2023-06-19T12:12:35;29.50;78.40
35246;DHT22;21379;50.962;6.960;2023-06-19T12:15:05;29.40;79.00
35246;DHT22;21379;50.962;6.960;2023-06-19T12:17:32;29.50;78.20
35246;DHT22;21379;50.962;6.960;2023-06-19T12:19:59;29.20;77.70
35246;DHT22;21379;50.962;6.960;2023-06-19T12:22:27;29.90;78.50
35246;DHT22;21379;50.962;6.960;2023-06-19T12:24:55;29.90;77.00
35246;DHT22;21379;50.962;6.960;2023-06-19T12:27:21;30.00;77.20
35246;DHT22;21379;50.962;6.960;2023-06-19T12:29:48;29.90;75.50
35246;DHT22;21379;50.962;6.960;2023-06-19T12:32:15;29.60;76.20
35246;DHT22;21379;50.962;6.960;2023-06-19T12:34:42;29.90;76.10
35246;DHT22;21379;50.962;6.960;2023-06-19T12:37:13;29.40;75.20
35246;DHT22;21379;50.962;6.960;2023-06-19T12:39:42;29.90;77.50
35246;DHT22;21379;50.962;6.960;2023-06-19T12:42:09;30.20;76.40
35246;DHT22;21379;50.962;6.960;2023-06-19T12:44:37;30.10;75.50
35246;DHT22;21379;50.962;6.960;2023-06-19T12:47:05;30.70;76.40
35246;DHT22;21379;50.962;6.960;2023-06-19T12:49:32;30.90;73.60
35246;DHT22;21379;50.962;6.960;2023-06-19T12:51:59;31.50;74.60
35246;DHT22;21379;50.962;6.960;2023-06-19T12:54:26;32.50;74.50
35246;DHT22;21379;50.962;6.960;2023-06-19T12:56:55;31.60;71.40
35246;DHT22;21379;50.962;6.960;2023-06-19T12:59:23;31.10;73.50
35246;DHT22;21379;50.962;6.960;2023-06-19T13:01:50;31.10;73.40
35246;DHT22;21379;50.962;6.960;2023-06-19T13:04:17;30.90;73.40
35246;DHT22;21379;50.962;6.960;2023-06-19T13:06:44;30.50;73.40
35246;DHT22;21379;50.962;6.960;2023-06-19T13:09:11;30.60;73.30
35246;DHT22;21379;50.962;6.960;2023-06-19T13:11:38;29.80;73.00
35246;DHT22;21379;50.962;6.960;2023-06-19T13:14:06;30.00;74.50
35246;DHT22;21379;50.962;6.960;2023-06-19T13:16:33;29.90;74.30
35246;DHT22;21379;50.962;6.960;2023-06-19T13:19:00;29.70;74.20
35246;DHT22;21379;50.962;6.960;2023-06-19T13:21:27;30.40;75.00
35246;DHT22;21379;50.962;6.960;2023-06-19T13:23:54;30.50;75.20
35246;DHT22;21379;50.962;6.960;2023-06-19T13:26:21;30.50;72.60
35246;DHT22;21379;50.962;6.960;2023-06-19T13:28:48;30.10;74.40
35246;DHT22;21379;50.962;6.960;2023-06-19T13:31:16;30.40;74.50
35246;DHT22;21379;50.962;6.960;2023-06-19T13:33:43;30.60;73.60
35246;DHT22;21379;50.962;6.960;2023-06-19T13:36:10;31.00;76.00
35246;DHT22;21379;50.962;6.960;2023-06-19T13:38:37;30.90;73.50
35246;DHT22;21379;50.962;6.960;2023-06-19T13:41:04;30.70;72.40
35246;DHT22;21379;50.962;6.960;2023-06-19T13:43:31;30.70;72.90
35246;DHT22;21379;50.962;6.960;2023-06-19T13:45:59;30.80;74.20
35246;DHT22;21379;50.962;6.960;2023-06-19T13:48:28;31.40;73.70
35246;DHT22;21379;50.962;6.960;2023-06-19T13:50:54;31.10;73.10
35246;DHT22;21379;50.962;6.960;2023-06-19T13:53:23;31.60;72.20
35246;DHT22;21379;50.962;6.960;2023-06-19T13:55:50;31.40;73.70
35246;DHT22;21379;50.962;6.960;2023-06-19T13:58:17;31.80;72.80
35246;DHT22;21379;50.962;6.960;2023-06-19T14:00:43;31.20;73.10
35246;DHT22;21379;50.962;6.960;2023-06-19T14:03:10;30.90;73.10
35246;DHT22;21379;50.962;6.960;2023-06-19T14:05:39;31.40;74.90
35246;DHT22;21379;50.962;6.960;2023-06-19T14:08:06;31.20;73.00
35246;DHT22;21379;50.962;6.960;2023-06-19T14:10:34;31.90;74.90
35246;DHT22;21379;50.962;6.960;2023-06-19T14:13:01;32.20;73.80
35246;DHT22;21379;50.962;6.960;2023-06-19T14:15:28;31.60;70.50
35246;DHT22;21379;50.962;6.960;2023-06-19T14:17:55;32.20;74.30
35246;DHT22;21379;50.962;6.960;2023-06-19T14:20:21;33.00;71.10
35246;DHT22;21379;50.962;6.960;2023-06-19T14:22:50;32.60;69.50
35246;DHT22;21379;50.962;6.960;2023-06-19T14:25:17;31.60;71.20
35246;DHT22;21379;50.962;6.960;2023-06-19T14:27:43;31.90;71.00
35246;DHT22;21379;50.962;6.960;2023-06-19T14:30:11;31.20;71.30
35246;DHT22;21379;50.962;6.960;2023-06-19T14:32:38;30.50;72.20
35246;DHT22;21379;50.962;6.960;2023-06-19T14:35:06;30.00;72.00
35246;DHT22;21379;50.962;6.960;2023-06-19T14:37:33;30.90;71.80
35246;DHT22;21379;50.962;6.960;2023-06-19T14:40:01;30.60;71.50
35246;DHT22;21379;50.962;6.960;2023-06-19T14:42:30;30.30;72.10
35246;DHT22;21379;50.962;6.960;2023-06-19T14:44:56;30.70;73.30
35246;DHT22;21379;50.962;6.960;2023-06-19T14:47:23;31.20;69.50
35246;DHT22;21379;50.962;6.960;2023-06-19T14:49:51;31.00;69.00
35246;DHT22;21379;50.962;6.960;2023-06-19T14:52:19;31.70;71.90
35246;DHT22;21379;50.962;6.960;2023-06-19T14:54:46;31.70;70.40
35246;DHT22;21379;50.962;6.960;2023-06-19T14:57:15;31.50;70.20
35246;DHT22;21379;50.962;6.960;2023-06-19T14:59:42;31.40;70.90
35246;DHT22;21379;50.962;6.960;2023-06-19T15:02:09;31.80;70.70
35246;DHT22;21379;50.962;6.960;2023-06-19T15:04:36;31.40;70.70
35246;DHT22;21379;50.962;6.960;2023-06-19T15:07:04;31.20;71.00
35246;DHT22;21379;50.962;6.960;2023-06-19T15:09:31;30.90;71.60
35246;DHT22;21379;50.962;6.960;2023-06-19T15:11:58;31.20;73.40
35246;DHT22;21379;50.962;6.960;2023-06-19T15:14:26;30.80;71.20
35246;DHT22;21379;50.962;6.960;2023-06-19T15:16:54;30.70;70.90
35246;DHT22;21379;50.962;6.960;2023-06-19T15:19:20;30.20;70.70
35246;DHT22;21379;50.962;6.960;2023-06-19T15:21:49;30.20;72.40
35246;DHT22;21379;50.962;6.960;2023-06-19T15:24:16;30.10;73.80
35246;DHT22;21379;50.962;6.960;2023-06-19T15:26:43;30.20;73.90
35246;DHT22;21379;50.962;6.960;2023-06-19T15:29:10;30.00;73.70
35246;DHT22;21379;50.962;6.960;2023-06-19T15:31:39;29.70;73.40
35246;DHT22;21379;50.962;6.960;2023-06-19T15:34:05;29.90;75.20